sensor_id;sensor_type;location;lat;lon;timestamp;P1;durP1;ratioP1;P2;durP2;ratioP2
79346;SDS011;68815;48.810;44.482;2024-01-27T00:00:38;7.6;;;3.1;;
79346;SDS011;68815;48.810;44.482;2024-01-27T00:03:40;6;;;2.9;;
79346;SDS011;68815;48.810;44.482;2024-01-27T00:06:42;6.9;;;3.2;;
79346;SDS011;68815;48.810;44.482;2024-01-27T00:09:43;7;;;2.9;;
79346;SDS011;68815;48.810;44.482;2024-01-27T00:12:45;6.3;;;2.4;;
79346;SDS011;68815;48.810;44.482;2024-01-27T00:15:47;7.2;;;3.2;;
79346;SDS011;68815;48.810;44.482;2024-01-27T00:18:49;5.3;;;3.1;;
79346;SDS011;68815;48.810;44.482;2024-01-27T00:21:51;8;;;3.1;;
79346;SDS011;68815;48.810;44.482;2024-01-27T00:24:53;6.1;;;3;;
79346;SDS011;68815;48.810;44.482;2024-01-27T00:27:55;6.8;;;3.3;;
79346;SDS011;68815;48.810;44.482;2024-01-27T00:30:56;6.2;;;2.6;;
79346;SDS011;68815;48.810;44.482;2024-01-27T00:33:58;6.4;;;2.8;;
79346;SDS011;68815;48.810;44.482;2024-01-27T00:37:00;7;;;3.1;;
79346;SDS011;68815;48.810;44.482;2024-01-27T00:40:03;6;;;2.9;;
79346;SDS011;68815;48.810;44.482;2024-01-27T00:43:06;5;;;2.7;;
79346;SDS011;68815;48.810;44.482;2024-01-27T00:46:08;6.6;;;2.8;;
79346;SDS011;68815;48.810;44.482;2024-01-27T00:49:18;6.6;;;2.7;;
79346;SDS011;68815;48.810;44.482;2024-01-27T00:52:20;7.3;;;2.9;;
79346;SDS011;68815;48.810;44.482;2024-01-27T00:55:22;6.5;;;2.9;;
79346;SDS011;68815;48.810;44.482;2024-01-27T00:58:24;7.5;;;3.3;;
79346;SDS011;68815;48.810;44.482;2024-01-27T01:01:26;7.7;;;3.4;;
79346;SDS011;68815;48.810;44.482;2024-01-27T01:04:28;7.4;;;3.3;;
79346;SDS011;68815;48.810;44.482;2024-01-27T01:07:30;6.5;;;2.8;;
79346;SDS011;68815;48.810;44.482;2024-01-27T01:10:32;8.2;;;3;;
79346;SDS011;68815;48.810;44.482;2024-01-27T01:13:33;6.7;;;3.3;;
79346;SDS011;68815;48.810;44.482;2024-01-27T01:16:35;6.5;;;2.8;;
79346;SDS011;68815;48.810;44.482;2024-01-27T01:19:37;6.4;;;2.9;;
79346;SDS011;68815;48.810;44.482;2024-01-27T01:22:39;8.5;;;3.5;;
79346;SDS011;68815;48.810;44.482;2024-01-27T01:25:41;6.8;;;2.9;;
79346;SDS011;68815;48.810;44.482;2024-01-27T01:28:42;7.8;;;3.2;;
79346;SDS011;68815;48.810;44.482;2024-01-27T01:31:45;5.3;;;2.5;;
79346;SDS011;68815;48.810;44.482;2024-01-27T01:34:47;8.1;;;2.9;;
79346;SDS011;68815;48.810;44.482;2024-01-27T01:37:49;5.2;;;2.5;;
79346;SDS011;68815;48.810;44.482;2024-01-27T01:40:51;6;;;2.5;;
79346;SDS011;68815;48.810;44.482;2024-01-27T01:43:53;5.4;;;2.1;;
79346;SDS011;68815;48.810;44.482;2024-01-27T01:46:55;6.6;;;3.1;;
79346;SDS011;68815;48.810;44.482;2024-01-27T01:49:58;6.6;;;2.6;;
79346;SDS011;68815;48.810;44.482;2024-01-27T01:53:00;7.6;;;3;;
79346;SDS011;68815;48.810;44.482;2024-01-27T01:56:02;5.7;;;2.7;;
79346;SDS011;68815;48.810;44.482;2024-01-27T01:59:05;7.4;;;2.6;;
79346;SDS011;68815;48.810;44.482;2024-01-27T02:02:07;6.8;;;3;;
79346;SDS011;68815;48.810;44.482;2024-01-27T02:05:09;7.2;;;3.2;;
79346;SDS011;68815;48.810;44.482;2024-01-27T02:08:12;5.6;;;2.4;;
79346;SDS011;68815;48.810;44.482;2024-01-27T02:11:14;6.7;;;2.8;;
79346;SDS011;68815;48.810;44.482;2024-01-27T02:14:16;6.1;;;2.9;;
79346;SDS011;68815;48.810;44.482;2024-01-27T02:17:18;8.5;;;3.4;;
79346;SDS011;68815;48.810;44.482;2024-01-27T02:20:20;6.7;;;3.3;;
79346;SDS011;68815;48.810;44.482;2024-01-27T02:23:21;8;;;3.6;;
79346;SDS011;68815;48.810;44.482;2024-01-27T02:26:23;6.7;;;3.1;;
79346;SDS011;68815;48.810;44.482;2024-01-27T02:29:25;7.7;;;4.2;;
79346;SDS011;68815;48.810;44.482;2024-01-27T02:32:27;8.9;;;4;;
79346;SDS011;68815;48.810;44.482;2024-01-27T02:35:28;10.7;;;4.3;;
79346;SDS011;68815;48.810;44.482;2024-01-27T02:38:31;11;;;4.7;;
79346;SDS011;68815;48.810;44.482;2024-01-27T02:41:33;8.5;;;3.9;;
79346;SDS011;68815;48.810;44.482;2024-01-27T02:44:35;9;;;4.6;;
79346;SDS011;68815;48.810;44.482;2024-01-27T02:47:37;9;;;3.6;;
79346;SDS011;68815;48.810;44.482;2024-01-27T02:50:39;12.5;;;5.7;;
79346;SDS011;68815;48.810;44.482;2024-01-27T02:53:42;7.7;;;4.4;;
79346;SDS011;68815;48.810;44.482;2024-01-27T02:56:44;9.9;;;4.3;;
79346;SDS011;68815;48.810;44.482;2024-01-27T02:59:45;8.3;;;4.6;;
79346;SDS011;68815;48.810;44.482;2024-01-27T03:02:47;10.9;;;5.4;;
79346;SDS011;68815;48.810;44.482;2024-01-27T03:05:49;10;;;5;;
79346;SDS011;68815;48.810;44.482;2024-01-27T03:08:51;12.2;;;4.4;;
79346;SDS011;68815;48.810;44.482;2024-01-27T03:11:53;12.6;;;5.4;;
79346;SDS011;68815;48.810;44.482;2024-01-27T03:14:55;11;;;4.9;;
79346;SDS011;68815;48.810;44.482;2024-01-27T03:17:56;10.1;;;4.2;;
79346;SDS011;68815;48.810;44.482;2024-01-27T03:20:58;10.9;;;4.3;;
79346;SDS011;68815;48.810;44.482;2024-01-27T03:24:00;9.5;;;4.9;;
79346;SDS011;68815;48.810;44.482;2024-01-27T03:27:02;10.9;;;5.1;;
79346;SDS011;68815;48.810;44.482;2024-01-27T03:30:04;11.2;;;4.7;;
79346;SDS011;68815;48.810;44.482;2024-01-27T03:33:08;8.7;;;4.4;;
79346;SDS011;68815;48.810;44.482;2024-01-27T03:36:10;11;;;4.5;;
79346;SDS011;68815;48.810;44.482;2024-01-27T03:39:12;7.9;;;3.5;;
79346;SDS011;68815;48.810;44.482;2024-01-27T03:42:14;9;;;4.5;;
79346;SDS011;68815;48.810;44.482;2024-01-27T03:45:16;6.1;;;3.1;;
79346;SDS011;68815;48.810;44.482;2024-01-27T03:48:18;6.1;;;3.5;;
79346;SDS011;68815;48.810;44.482;2024-01-27T03:51:19;8.9;;;4.6;;
79346;SDS011;68815;48.810;44.482;2024-01-27T03:54:22;12;;;5.6;;
79346;SDS011;68815;48.810;44.482;2024-01-27T03:57:24;7.8;;;4.4;;
79346;SDS011;68815;48.810;44.482;2024-01-27T04:00:26;11.3;;;5.8;;
79346;SDS011;68815;48.810;44.482;2024-01-27T04:03:28;10.4;;;6.2;;
79346;SDS011;68815;48.810;44.482;2024-01-27T04:06:35;12.3;;;5.9;;
79346;SDS011;68815;48.810;44.482;2024-01-27T04:09:37;9.4;;;6.4;;
79346;SDS011;68815;48.810;44.482;2024-01-27T04:12:39;11.7;;;7.2;;
79346;SDS011;68815;48.810;44.482;2024-01-27T04:15:41;12.8;;;8.4;;
79346;SDS011;68815;48.810;44.482;2024-01-27T04:18:43;11.7;;;7.9;;
79346;SDS011;68815;48.810;44.482;2024-01-27T04:21:45;11;;;9.2;;
79346;SDS011;68815;48.810;44.482;2024-01-27T04:24:46;10.7;;;8.7;;
79346;SDS011;68815;48.810;44.482;2024-01-27T04:27:48;10.7;;;7.9;;
79346;SDS011;68815;48.810;44.482;2024-01-27T04:30:50;12.8;;;10.3;;
79346;SDS011;68815;48.810;44.482;2024-01-27T04:33:52;10.9;;;7.6;;
79346;SDS011;68815;48.810;44.482;2024-01-27T04:36:54;12.1;;;10.4;;
79346;SDS011;68815;48.810;44.482;2024-01-27T04:39:56;12.4;;;10.1;;
79346;SDS011;68815;48.810;44.482;2024-01-27T04:42:58;13;;;11.7;;
79346;SDS011;68815;48.810;44.482;2024-01-27T04:45:59;14;;;12.7;;
79346;SDS011;68815;48.810;44.482;2024-01-27T04:49:01;16.7;;;15.3;;
79346;SDS011;68815;48.810;44.482;2024-01-27T04:52:03;14.9;;;13.6;;
79346;SDS011;68815;48.810;44.482;2024-01-27T04:55:06;18.3;;;17;;
79346;SDS011;68815;48.810;44.482;2024-01-27T04:58:08;16.8;;;15.4;;
79346;SDS011;68815;48.810;44.482;2024-01-27T05:01:10;18;;;16.4;;
79346;SDS011;68815;48.810;44.482;2024-01-27T05:04:12;18.5;;;17;;
79346;SDS011;68815;48.810;44.482;2024-01-27T05:07:14;17.5;;;16.3;;
79346;SDS011;68815;48.810;44.482;2024-01-27T05:10:17;15.5;;;14.2;;
79346;SDS011;68815;48.810;44.482;2024-01-27T05:13:19;17.4;;;16;;
79346;SDS011;68815;48.810;44.482;2024-01-27T05:16:21;18.5;;;17.3;;
79346;SDS011;68815;48.810;44.482;2024-01-27T05:19:23;18.1;;;16.7;;
79346;SDS011;68815;48.810;44.482;2024-01-27T05:22:25;17.4;;;16.2;;
79346;SDS011;68815;48.810;44.482;2024-01-27T05:25:27;19.7;;;18.3;;
79346;SDS011;68815;48.810;44.482;2024-01-27T05:28:29;19.2;;;17.9;;
79346;SDS011;68815;48.810;44.482;2024-01-27T05:31:31;19.1;;;17.9;;
79346;SDS011;68815;48.810;44.482;2024-01-27T05:34:33;20.6;;;19.3;;
79346;SDS011;68815;48.810;44.482;2024-01-27T05:37:34;18.5;;;17.3;;
79346;SDS011;68815;48.810;44.482;2024-01-27T05:40:37;19.1;;;17.8;;
79346;SDS011;68815;48.810;44.482;2024-01-27T05:43:38;19.7;;;18.4;;
79346;SDS011;68815;48.810;44.482;2024-01-27T05:46:40;21.4;;;20.1;;
79346;SDS011;68815;48.810;44.482;2024-01-27T05:49:47;17.6;;;16.6;;
79346;SDS011;68815;48.810;44.482;2024-01-27T05:52:50;16.9;;;15.9;;
79346;SDS011;68815;48.810;44.482;2024-01-27T05:55:52;19;;;17.8;;
79346;SDS011;68815;48.810;44.482;2024-01-27T05:58:54;20.7;;;19.4;;
79346;SDS011;68815;48.810;44.482;2024-01-27T06:01:56;21.3;;;20.2;;
79346;SDS011;68815;48.810;44.482;2024-01-27T06:04:58;20.9;;;19.7;;
79346;SDS011;68815;48.810;44.482;2024-01-27T06:07:59;21.3;;;20.1;;
79346;SDS011;68815;48.810;44.482;2024-01-27T06:11:01;21.4;;;20;;
79346;SDS011;68815;48.810;44.482;2024-01-27T06:14:04;20.2;;;19.1;;
79346;SDS011;68815;48.810;44.482;2024-01-27T06:17:05;21.3;;;20.1;;
79346;SDS011;68815;48.810;44.482;2024-01-27T06:20:08;21.2;;;19.9;;
79346;SDS011;68815;48.810;44.482;2024-01-27T06:23:10;20.4;;;19.1;;
79346;SDS011;68815;48.810;44.482;2024-01-27T06:26:12;20.3;;;19.3;;
79346;SDS011;68815;48.810;44.482;2024-01-27T06:29:15;18.7;;;17.6;;
79346;SDS011;68815;48.810;44.482;2024-01-27T06:32:16;20.2;;;19;;
79346;SDS011;68815;48.810;44.482;2024-01-27T06:35:18;19.8;;;18.7;;
79346;SDS011;68815;48.810;44.482;2024-01-27T06:38:20;20.4;;;19.3;;
79346;SDS011;68815;48.810;44.482;2024-01-27T06:41:22;20.1;;;18.9;;
79346;SDS011;68815;48.810;44.482;2024-01-27T06:44:24;19.4;;;18.4;;
79346;SDS011;68815;48.810;44.482;2024-01-27T06:47:27;21.4;;;20.2;;
79346;SDS011;68815;48.810;44.482;2024-01-27T06:50:29;20.5;;;19.1;;
79346;SDS011;68815;48.810;44.482;2024-01-27T06:53:33;21.1;;;19.8;;
79346;SDS011;68815;48.810;44.482;2024-01-27T06:56:34;19.3;;;18.2;;
79346;SDS011;68815;48.810;44.482;2024-01-27T06:59:37;22.5;;;21.3;;
79346;SDS011;68815;48.810;44.482;2024-01-27T07:02:39;18.5;;;17.4;;
79346;SDS011;68815;48.810;44.482;2024-01-27T07:05:42;19.6;;;18.6;;
79346;SDS011;68815;48.810;44.482;2024-01-27T07:08:43;22.1;;;20.9;;
79346;SDS011;68815;48.810;44.482;2024-01-27T07:11:45;22;;;20.7;;
79346;SDS011;68815;48.810;44.482;2024-01-27T07:14:47;19.3;;;18.3;;
79346;SDS011;68815;48.810;44.482;2024-01-27T07:17:49;20.8;;;19.7;;
79346;SDS011;68815;48.810;44.482;2024-01-27T07:20:51;20.7;;;19.4;;
79346;SDS011;68815;48.810;44.482;2024-01-27T07:23:53;23;;;21.6;;
79346;SDS011;68815;48.810;44.482;2024-01-27T07:26:55;21.7;;;20.4;;
79346;SDS011;68815;48.810;44.482;2024-01-27T07:29:57;21.3;;;20;;
79346;SDS011;68815;48.810;44.482;2024-01-27T07:32:59;21.6;;;20.3;;
79346;SDS011;68815;48.810;44.482;2024-01-27T07:36:01;21.5;;;20;;
79346;SDS011;68815;48.810;44.482;2024-01-27T07:39:02;23.6;;;22.3;;
79346;SDS011;68815;48.810;44.482;2024-01-27T07:42:05;23.3;;;21.6;;
79346;SDS011;68815;48.810;44.482;2024-01-27T07:45:07;20.8;;;19.5;;
79346;SDS011;68815;48.810;44.482;2024-01-27T07:48:09;20.5;;;19.3;;
79346;SDS011;68815;48.810;44.482;2024-01-27T07:51:10;21.5;;;20.1;;
79346;SDS011;68815;48.810;44.482;2024-01-27T07:54:13;19.4;;;17.9;;
79346;SDS011;68815;48.810;44.482;2024-01-27T07:57:15;20.5;;;19;;
79346;SDS011;68815;48.810;44.482;2024-01-27T08:00:17;19.4;;;18.2;;
79346;SDS011;68815;48.810;44.482;2024-01-27T08:03:19;21.5;;;20.3;;
79346;SDS011;68815;48.810;44.482;2024-01-27T08:06:26;17.6;;;16.6;;
79346;SDS011;68815;48.810;44.482;2024-01-27T08:09:30;17;;;15.9;;
79346;SDS011;68815;48.810;44.482;2024-01-27T08:12:32;18.7;;;17.6;;
79346;SDS011;68815;48.810;44.482;2024-01-27T08:15:34;16.9;;;15.8;;
79346;SDS011;68815;48.810;44.482;2024-01-27T08:18:36;17.6;;;16.4;;
79346;SDS011;68815;48.810;44.482;2024-01-27T08:21:37;17.2;;;16.1;;
79346;SDS011;68815;48.810;44.482;2024-01-27T08:24:39;17;;;15.7;;
79346;SDS011;68815;48.810;44.482;2024-01-27T08:27:41;11.9;;;10.9;;
79346;SDS011;68815;48.810;44.482;2024-01-27T08:30:43;9.7;;;8.9;;
79346;SDS011;68815;48.810;44.482;2024-01-27T08:33:45;9.3;;;8.4;;
79346;SDS011;68815;48.810;44.482;2024-01-27T08:36:47;8.1;;;5;;
79346;SDS011;68815;48.810;44.482;2024-01-27T08:39:49;8.7;;;5.3;;
79346;SDS011;68815;48.810;44.482;2024-01-27T08:42:51;6.9;;;3.8;;
79346;SDS011;68815;48.810;44.482;2024-01-27T08:45:53;7.9;;;3.8;;
79346;SDS011;68815;48.810;44.482;2024-01-27T08:48:55;6.9;;;2.8;;
79346;SDS011;68815;48.810;44.482;2024-01-27T08:51:57;5.6;;;3;;
79346;SDS011;68815;48.810;44.482;2024-01-27T08:54:59;7.1;;;3.5;;
79346;SDS011;68815;48.810;44.482;2024-01-27T08:58:01;6.8;;;3.6;;
79346;SDS011;68815;48.810;44.482;2024-01-27T09:01:03;6.4;;;3.1;;
79346;SDS011;68815;48.810;44.482;2024-01-27T09:04:05;8.2;;;3.1;;
79346;SDS011;68815;48.810;44.482;2024-01-27T09:07:06;8.4;;;3.9;;
79346;SDS011;68815;48.810;44.482;2024-01-27T09:10:10;7.7;;;3.3;;
79346;SDS011;68815;48.810;44.482;2024-01-27T09:13:12;10.4;;;3.8;;
79346;SDS011;68815;48.810;44.482;2024-01-27T09:16:14;8.9;;;3.7;;
79346;SDS011;68815;48.810;44.482;2024-01-27T09:19:16;7.6;;;3.4;;
79346;SDS011;68815;48.810;44.482;2024-01-27T09:22:18;9.9;;;4.6;;
79346;SDS011;68815;48.810;44.482;2024-01-27T09:25:20;14;;;5.7;;
79346;SDS011;68815;48.810;44.482;2024-01-27T09:28:22;10.1;;;4.9;;
79346;SDS011;68815;48.810;44.482;2024-01-27T09:31:24;9.6;;;4.7;;
79346;SDS011;68815;48.810;44.482;2024-01-27T09:34:26;13.5;;;6.4;;
79346;SDS011;68815;48.810;44.482;2024-01-27T09:37:29;13;;;6.7;;
79346;SDS011;68815;48.810;44.482;2024-01-27T09:40:31;15.2;;;7.3;;
79346;SDS011;68815;48.810;44.482;2024-01-27T09:43:33;12.9;;;6.9;;
79346;SDS011;68815;48.810;44.482;2024-01-27T09:46:37;13;;;6.6;;
79346;SDS011;68815;48.810;44.482;2024-01-27T09:49:40;14.8;;;8.2;;
79346;SDS011;68815;48.810;44.482;2024-01-27T09:52:43;16.1;;;8.3;;
79346;SDS011;68815;48.810;44.482;2024-01-27T09:55:45;13.3;;;7.3;;
79346;SDS011;68815;48.810;44.482;2024-01-27T09:58:47;13.3;;;7.4;;
79346;SDS011;68815;48.810;44.482;2024-01-27T10:01:51;9.2;;;5.8;;
79346;SDS011;68815;48.810;44.482;2024-01-27T10:04:54;9.4;;;6.5;;
79346;SDS011;68815;48.810;44.482;2024-01-27T10:07:56;10.7;;;6.3;;
79346;SDS011;68815;48.810;44.482;2024-01-27T10:10:58;9.3;;;6.4;;
79346;SDS011;68815;48.810;44.482;2024-01-27T10:14:01;10.3;;;6.1;;
79346;SDS011;68815;48.810;44.482;2024-01-27T10:17:03;9.7;;;5.7;;
79346;SDS011;68815;48.810;44.482;2024-01-27T10:20:05;11.5;;;6.2;;
79346;SDS011;68815;48.810;44.482;2024-01-27T10:23:11;7.6;;;4.4;;
79346;SDS011;68815;48.810;44.482;2024-01-27T10:26:14;9.3;;;5.8;;
79346;SDS011;68815;48.810;44.482;2024-01-27T10:29:16;8.5;;;6.1;;
79346;SDS011;68815;48.810;44.482;2024-01-27T10:32:17;7.6;;;4.1;;
79346;SDS011;68815;48.810;44.482;2024-01-27T10:35:19;8.2;;;4.2;;
79346;SDS011;68815;48.810;44.482;2024-01-27T10:38:21;11.9;;;4.9;;
79346;SDS011;68815;48.810;44.482;2024-01-27T10:41:24;9.6;;;4.2;;
79346;SDS011;68815;48.810;44.482;2024-01-27T10:44:26;6.8;;;3.7;;
79346;SDS011;68815;48.810;44.482;2024-01-27T10:47:31;9.8;;;4.4;;
79346;SDS011;68815;48.810;44.482;2024-01-27T10:50:35;9.6;;;5;;
79346;SDS011;68815;48.810;44.482;2024-01-27T10:53:38;11.1;;;4.9;;
79346;SDS011;68815;48.810;44.482;2024-01-27T10:56:42;10.9;;;4.8;;
79346;SDS011;68815;48.810;44.482;2024-01-27T10:59:44;8.5;;;4.3;;
79346;SDS011;68815;48.810;44.482;2024-01-27T11:02:49;11;;;4.5;;
79346;SDS011;68815;48.810;44.482;2024-01-27T11:05:52;17.3;;;7.7;;
79346;SDS011;68815;48.810;44.482;2024-01-27T11:08:55;14.6;;;6.8;;
79346;SDS011;68815;48.810;44.482;2024-01-27T11:11:58;9.8;;;5.2;;
79346;SDS011;68815;48.810;44.482;2024-01-27T11:15:00;12.4;;;6.1;;
79346;SDS011;68815;48.810;44.482;2024-01-27T11:18:02;11.1;;;4.7;;
79346;SDS011;68815;48.810;44.482;2024-01-27T11:21:06;13.4;;;5.2;;
79346;SDS011;68815;48.810;44.482;2024-01-27T11:24:16;10.3;;;5;;
79346;SDS011;68815;48.810;44.482;2024-01-27T11:27:26;10.7;;;5;;
79346;SDS011;68815;48.810;44.482;2024-01-27T11:30:29;11.4;;;4.9;;
79346;SDS011;68815;48.810;44.482;2024-01-27T11:33:32;10;;;4.9;;
79346;SDS011;68815;48.810;44.482;2024-01-27T11:36:34;8.8;;;4.6;;
79346;SDS011;68815;48.810;44.482;2024-01-27T11:39:36;11.3;;;6.1;;
79346;SDS011;68815;48.810;44.482;2024-01-27T11:42:39;13.5;;;5.9;;
79346;SDS011;68815;48.810;44.482;2024-01-27T11:45:42;14.2;;;5.6;;
79346;SDS011;68815;48.810;44.482;2024-01-27T11:48:44;7.6;;;4.3;;
79346;SDS011;68815;48.810;44.482;2024-01-27T11:51:45;10.1;;;5.1;;
79346;SDS011;68815;48.810;44.482;2024-01-27T11:54:53;10.8;;;5.1;;
79346;SDS011;68815;48.810;44.482;2024-01-27T11:57:56;14;;;5.5;;
79346;SDS011;68815;48.810;44.482;2024-01-27T12:00:59;7.6;;;3.9;;
79346;SDS011;68815;48.810;44.482;2024-01-27T12:04:02;6.6;;;3.5;;
79346;SDS011;68815;48.810;44.482;2024-01-27T12:07:04;6.9;;;3.7;;
79346;SDS011;68815;48.810;44.482;2024-01-27T12:10:06;7.2;;;3.9;;
79346;SDS011;68815;48.810;44.482;2024-01-27T12:13:09;7.5;;;4.7;;
79346;SDS011;68815;48.810;44.482;2024-01-27T12:16:11;9;;;5.3;;
79346;SDS011;68815;48.810;44.482;2024-01-27T12:19:13;7.2;;;4.4;;
79346;SDS011;68815;48.810;44.482;2024-01-27T12:22:23;6.3;;;3.5;;
79346;SDS011;68815;48.810;44.482;2024-01-27T12:25:27;4.9;;;2.6;;
79346;SDS011;68815;48.810;44.482;2024-01-27T12:28:28;6.6;;;3.7;;
79346;SDS011;68815;48.810;44.482;2024-01-27T12:31:31;6.1;;;3.8;;
79346;SDS011;68815;48.810;44.482;2024-01-27T12:34:33;8.5;;;4.9;;
79346;SDS011;68815;48.810;44.482;2024-01-27T12:37:42;6.5;;;3.3;;
79346;SDS011;68815;48.810;44.482;2024-01-27T12:40:45;6.3;;;3.3;;
79346;SDS011;68815;48.810;44.482;2024-01-27T12:43:47;6.3;;;3.2;;
79346;SDS011;68815;48.810;44.482;2024-01-27T12:46:50;6.8;;;3;;
79346;SDS011;68815;48.810;44.482;2024-01-27T12:49:53;6.2;;;3.1;;
79346;SDS011;68815;48.810;44.482;2024-01-27T12:52:55;5.2;;;3;;
79346;SDS011;68815;48.810;44.482;2024-01-27T12:55:56;4.7;;;2.4;;
79346;SDS011;68815;48.810;44.482;2024-01-27T12:58:59;4.4;;;1.8;;
79346;SDS011;68815;48.810;44.482;2024-01-27T13:02:01;6.1;;;2.3;;
79346;SDS011;68815;48.810;44.482;2024-01-27T13:05:03;6.3;;;3.2;;
79346;SDS011;68815;48.810;44.482;2024-01-27T13:08:05;5.5;;;2.8;;
79346;SDS011;68815;48.810;44.482;2024-01-27T13:11:07;5.5;;;2.8;;
79346;SDS011;68815;48.810;44.482;2024-01-27T13:14:09;6.5;;;2.8;;
79346;SDS011;68815;48.810;44.482;2024-01-27T13:17:11;4.8;;;2.8;;
79346;SDS011;68815;48.810;44.482;2024-01-27T13:20:13;5.4;;;2.7;;
79346;SDS011;68815;48.810;44.482;2024-01-27T13:23:15;5.1;;;2.5;;
79346;SDS011;68815;48.810;44.482;2024-01-27T13:26:16;5.7;;;2.6;;
79346;SDS011;68815;48.810;44.482;2024-01-27T13:29:18;5.3;;;2.7;;
79346;SDS011;68815;48.810;44.482;2024-01-27T13:32:20;7;;;3.2;;
79346;SDS011;68815;48.810;44.482;2024-01-27T13:35:22;5.4;;;2.7;;
79346;SDS011;68815;48.810;44.482;2024-01-27T13:38:24;5.9;;;2.9;;
79346;SDS011;68815;48.810;44.482;2024-01-27T13:41:26;5.7;;;2.6;;
79346;SDS011;68815;48.810;44.482;2024-01-27T13:44:28;5.4;;;3;;
79346;SDS011;68815;48.810;44.482;2024-01-27T13:47:30;4.3;;;2.2;;
79346;SDS011;68815;48.810;44.482;2024-01-27T13:50:32;5.6;;;3.1;;
79346;SDS011;68815;48.810;44.482;2024-01-27T13:53:34;5.1;;;2.6;;
79346;SDS011;68815;48.810;44.482;2024-01-27T13:56:36;6.1;;;3.2;;
79346;SDS011;68815;48.810;44.482;2024-01-27T13:59:38;5.6;;;3;;
79346;SDS011;68815;48.810;44.482;2024-01-27T14:02:40;5.7;;;2.8;;
79346;SDS011;68815;48.810;44.482;2024-01-27T14:05:42;7.8;;;3.6;;
79346;SDS011;68815;48.810;44.482;2024-01-27T14:08:43;7.3;;;3.5;;
79346;SDS011;68815;48.810;44.482;2024-01-27T14:11:51;7.3;;;3.9;;
79346;SDS011;68815;48.810;44.482;2024-01-27T14:15:01;8;;;3.9;;
79346;SDS011;68815;48.810;44.482;2024-01-27T14:18:07;6.4;;;3.2;;
79346;SDS011;68815;48.810;44.482;2024-01-27T14:21:09;6.9;;;3.2;;
79346;SDS011;68815;48.810;44.482;2024-01-27T14:24:11;7.8;;;3.7;;
79346;SDS011;68815;48.810;44.482;2024-01-27T14:27:13;5.9;;;3.2;;
79346;SDS011;68815;48.810;44.482;2024-01-27T14:30:15;6.3;;;3.2;;
79346;SDS011;68815;48.810;44.482;2024-01-27T14:33:17;7.7;;;3.9;;
79346;SDS011;68815;48.810;44.482;2024-01-27T14:36:19;7.4;;;3.9;;
79346;SDS011;68815;48.810;44.482;2024-01-27T14:39:22;5.9;;;3.2;;
79346;SDS011;68815;48.810;44.482;2024-01-27T14:42:23;9;;;4.7;;
79346;SDS011;68815;48.810;44.482;2024-01-27T14:45:27;9.6;;;4.7;;
79346;SDS011;68815;48.810;44.482;2024-01-27T14:48:29;10.5;;;4.9;;
79346;SDS011;68815;48.810;44.482;2024-01-27T14:51:31;8.8;;;3.4;;
79346;SDS011;68815;48.810;44.482;2024-01-27T14:54:33;10.3;;;4.6;;
79346;SDS011;68815;48.810;44.482;2024-01-27T14:57:36;8.8;;;4.3;;
79346;SDS011;68815;48.810;44.482;2024-01-27T15:00:38;10.5;;;4.4;;
79346;SDS011;68815;48.810;44.482;2024-01-27T15:03:40;10.1;;;4.4;;
79346;SDS011;68815;48.810;44.482;2024-01-27T15:06:42;9.3;;;4.4;;
79346;SDS011;68815;48.810;44.482;2024-01-27T15:09:44;11.4;;;4.6;;
79346;SDS011;68815;48.810;44.482;2024-01-27T15:12:46;9.8;;;5.2;;
79346;SDS011;68815;48.810;44.482;2024-01-27T15:15:47;10.8;;;4.5;;
79346;SDS011;68815;48.810;44.482;2024-01-27T15:18:50;14.5;;;5.3;;
79346;SDS011;68815;48.810;44.482;2024-01-27T15:21:52;11.7;;;5;;
79346;SDS011;68815;48.810;44.482;2024-01-27T15:24:54;12.1;;;4.2;;
79346;SDS011;68815;48.810;44.482;2024-01-27T15:27:56;14.4;;;5.3;;
79346;SDS011;68815;48.810;44.482;2024-01-27T15:30:58;11.2;;;5.4;;
79346;SDS011;68815;48.810;44.482;2024-01-27T15:34:00;15.1;;;5.5;;
79346;SDS011;68815;48.810;44.482;2024-01-27T15:37:03;12.5;;;5.1;;
79346;SDS011;68815;48.810;44.482;2024-01-27T15:40:06;11.4;;;5;;
79346;SDS011;68815;48.810;44.482;2024-01-27T15:43:24;15.5;;;5.5;;
79346;SDS011;68815;48.810;44.482;2024-01-27T15:47:00;13.1;;;5.1;;
79346;SDS011;68815;48.810;44.482;2024-01-27T15:50:02;13.7;;;4.7;;
79346;SDS011;68815;48.810;44.482;2024-01-27T15:53:05;10.1;;;4.5;;
79346;SDS011;68815;48.810;44.482;2024-01-27T15:56:07;11.3;;;5.1;;
79346;SDS011;68815;48.810;44.482;2024-01-27T15:59:09;10.8;;;4.4;;
79346;SDS011;68815;48.810;44.482;2024-01-27T16:02:10;11.2;;;5.1;;
79346;SDS011;68815;48.810;44.482;2024-01-27T16:05:12;10.6;;;5.1;;
79346;SDS011;68815;48.810;44.482;2024-01-27T16:08:14;9.7;;;4.7;;
79346;SDS011;68815;48.810;44.482;2024-01-27T16:11:16;9.3;;;4.1;;
79346;SDS011;68815;48.810;44.482;2024-01-27T16:14:18;12.1;;;4.8;;
79346;SDS011;68815;48.810;44.482;2024-01-27T16:17:20;12.5;;;5.1;;
79346;SDS011;68815;48.810;44.482;2024-01-27T16:20:22;11.5;;;5.5;;
79346;SDS011;68815;48.810;44.482;2024-01-27T16:23:24;11.9;;;5.4;;
79346;SDS011;68815;48.810;44.482;2024-01-27T16:26:26;12.1;;;5.2;;
79346;SDS011;68815;48.810;44.482;2024-01-27T16:29:28;10.4;;;4.9;;
79346;SDS011;68815;48.810;44.482;2024-01-27T16:32:29;13.5;;;5.1;;
79346;SDS011;68815;48.810;44.482;2024-01-27T16:35:31;12.1;;;5.1;;
79346;SDS011;68815;48.810;44.482;2024-01-27T16:38:33;8.9;;;4.5;;
79346;SDS011;68815;48.810;44.482;2024-01-27T16:41:35;9.7;;;4.3;;
79346;SDS011;68815;48.810;44.482;2024-01-27T16:44:37;9.2;;;4.2;;
79346;SDS011;68815;48.810;44.482;2024-01-27T16:47:39;7.7;;;3.8;;
79346;SDS011;68815;48.810;44.482;2024-01-27T16:50:42;7.1;;;3;;
79346;SDS011;68815;48.810;44.482;2024-01-27T16:53:44;9.1;;;3.9;;
79346;SDS011;68815;48.810;44.482;2024-01-27T16:56:46;8;;;3.7;;
79346;SDS011;68815;48.810;44.482;2024-01-27T16:59:48;8.9;;;4;;
79346;SDS011;68815;48.810;44.482;2024-01-27T17:02:50;8.5;;;4;;
79346;SDS011;68815;48.810;44.482;2024-01-27T17:05:52;8.5;;;3.9;;
79346;SDS011;68815;48.810;44.482;2024-01-27T17:08:54;8;;;3.4;;
79346;SDS011;68815;48.810;44.482;2024-01-27T17:11:57;9.2;;;3.9;;
79346;SDS011;68815;48.810;44.482;2024-01-27T17:14:59;6.3;;;3.8;;
79346;SDS011;68815;48.810;44.482;2024-01-27T17:18:01;7.7;;;5;;
79346;SDS011;68815;48.810;44.482;2024-01-27T17:21:04;7.1;;;6;;
79346;SDS011;68815;48.810;44.482;2024-01-27T17:24:06;6.5;;;5.2;;
79346;SDS011;68815;48.810;44.482;2024-01-27T17:27:08;5.8;;;3.7;;
79346;SDS011;68815;48.810;44.482;2024-01-27T17:30:11;8.1;;;4.9;;
79346;SDS011;68815;48.810;44.482;2024-01-27T17:33:13;8.7;;;5.3;;
79346;SDS011;68815;48.810;44.482;2024-01-27T17:36:15;8.2;;;5.6;;
79346;SDS011;68815;48.810;44.482;2024-01-27T17:39:17;9.6;;;7.6;;
79346;SDS011;68815;48.810;44.482;2024-01-27T17:42:19;9;;;7.3;;
79346;SDS011;68815;48.810;44.482;2024-01-27T17:45:21;9;;;7.5;;
79346;SDS011;68815;48.810;44.482;2024-01-27T17:48:23;9.5;;;7.5;;
79346;SDS011;68815;48.810;44.482;2024-01-27T17:51:26;9.1;;;7.6;;
79346;SDS011;68815;48.810;44.482;2024-01-27T17:54:28;8.6;;;6.2;;
79346;SDS011;68815;48.810;44.482;2024-01-27T17:57:30;8.3;;;7;;
79346;SDS011;68815;48.810;44.482;2024-01-27T18:00:31;11.9;;;10;;
79346;SDS011;68815;48.810;44.482;2024-01-27T18:03:33;14.4;;;13;;
79346;SDS011;68815;48.810;44.482;2024-01-27T18:06:35;17.2;;;15.9;;
79346;SDS011;68815;48.810;44.482;2024-01-27T18:09:38;17.2;;;15.8;;
79346;SDS011;68815;48.810;44.482;2024-01-27T18:12:40;16.7;;;15.2;;
79346;SDS011;68815;48.810;44.482;2024-01-27T18:15:42;17.4;;;15.6;;
79346;SDS011;68815;48.810;44.482;2024-01-27T18:18:44;18;;;16.7;;
79346;SDS011;68815;48.810;44.482;2024-01-27T18:21:46;16.6;;;15.2;;
79346;SDS011;68815;48.810;44.482;2024-01-27T18:24:48;20.1;;;18.5;;
79346;SDS011;68815;48.810;44.482;2024-01-27T18:27:49;20;;;18.5;;
79346;SDS011;68815;48.810;44.482;2024-01-27T18:30:52;19;;;17.5;;